Time;durP1;ratioP1;P1;durP2;ratioP2;P2;SDS_P1;SDS_P2;PMS_P1;PMS_P2;Temp;Humidity;BMP_temperature;BMP_pressure;BME280_temperature;BME280_humidity;BME280_pressure;Samples;Min_cycle;Max_cycle;Signal;HPM_P1;HPM_P2
2023/03/15 00:01:45;;;;;;;;;;;4.20;82.60;;;;;;5091909;28;20253;-35
2023/03/15 00:04:12;;;;;;;;;;;4.10;82.50;;;;;;5092033;28;19953;-34
2023/03/15 00:06:37;;;;;;;;;;;4.10;82.70;;;;;;5091662;28;19909;-35
2023/03/15 00:09:03;;;;;;;;;;;4.00;82.70;;;;;;5091737;28;19915;-35
2023/03/15 00:11:32;;;;;;;;;;;3.90;82.90;;;;;;5091735;28;19997;-35
2023/03/15 00:13:57;;;;;;;;;;;3.90;83.00;;;;;;5091647;28;19908;-35
2023/03/15 00:16:26;;;;;;;;;;;3.90;83.10;;;;;;5091625;28;19960;-35
2023/03/15 00:18:52;;;;;;;;;;;3.90;83.20;;;;;;5091686;28;19908;-33
2023/03/15 00:21:17;;;;;;;;;;;3.80;83.20;;;;;;5091847;28;19915;-35
2023/03/15 00:23:43;;;;;;;;;;;3.90;83.30;;;;;;5091723;28;19916;-35
2023/03/15 00:26:09;;;;;;;;;;;3.90;83.40;;;;;;5090179;28;19908;-35
2023/03/15 00:28:34;;;;;;;;;;;3.80;83.50;;;;;;5091675;28;19917;-33
2023/03/15 00:31:03;;;;;;;;;;;3.80;83.50;;;;;;5091508;28;19947;-35
2023/03/15 00:33:33;;;;;;;;;;;3.90;83.60;;;;;;5091562;28;19909;-35
2023/03/15 00:36:01;;;;;;;;;;;3.80;84.20;;;;;;5091592;28;20331;-35
2023/03/15 00:38:26;;;;;;;;;;;3.80;83.80;;;;;;5091532;28;20335;-35
2023/03/15 00:40:52;;;;;;;;;;;3.80;83.80;;;;;;5091573;28;20021;-34
2023/03/15 00:43:17;;;;;;;;;;;3.80;83.90;;;;;;5091544;28;19947;-35
2023/03/15 00:45:44;;;;;;;;;;;3.80;83.90;;;;;;5091544;28;20266;-35
2023/03/15 00:48:09;;;;;;;;;;;3.80;84.00;;;;;;5090001;28;19908;-35
2023/03/15 00:50:35;;;;;;;;;;;3.80;84.00;;;;;;5091519;28;20232;-34
2023/03/15 00:53:00;;;;;;;;;;;3.80;84.10;;;;;;5090161;28;19919;-35
2023/03/15 00:55:26;;;;;;;;;;;3.80;84.10;;;;;;5091441;28;19919;-34
2023/03/15 00:57:51;;;;;;;;;;;3.80;84.10;;;;;;5091397;28;20280;-35
2023/03/15 01:00:19;;;;;;;;;;;3.80;84.10;;;;;;5091310;28;20331;-34
2023/03/15 01:02:45;;;;;;;;;;;3.90;84.30;;;;;;5091567;28;19914;-34
2023/03/15 01:05:11;;;;;;;;;;;3.80;84.30;;;;;;5091414;28;20007;-35
2023/03/15 01:07:36;;;;;;;;;;;3.90;84.50;;;;;;5093451;28;19920;-35
2023/03/15 01:10:02;;;;;;;;;;;3.90;84.40;;;;;;5095733;28;19974;-33
2023/03/15 01:12:31;;;;;;;;;;;3.90;84.40;;;;;;5095251;28;19995;-34
2023/03/15 01:14:57;;;;;;;;;;;4.00;84.40;;;;;;5095245;28;19912;-35
2023/03/15 01:17:22;;;;;;;;;;;4.00;84.30;;;;;;5094901;28;19934;-33
2023/03/15 01:19:50;;;;;;;;;;;4.00;84.90;;;;;;5095178;28;19912;-37
2023/03/15 01:22:16;;;;;;;;;;;4.00;84.30;;;;;;5095332;28;20067;-36
2023/03/15 01:24:41;;;;;;;;;;;4.00;84.30;;;;;;5095138;28;20470;-37
2023/03/15 01:27:07;;;;;;;;;;;4.00;84.40;;;;;;5094981;28;19943;-34
2023/03/15 01:29:32;;;;;;;;;;;4.00;84.30;;;;;;5094808;28;20001;-34
2023/03/15 01:31:58;;;;;;;;;;;4.00;84.40;;;;;;5094936;28;20019;-37
2023/03/15 01:34:23;;;;;;;;;;;4.00;84.30;;;;;;5095000;28;19962;-36
2023/03/15 01:36:51;;;;;;;;;;;4.00;84.40;;;;;;5093519;28;20009;-37
2023/03/15 01:39:16;;;;;;;;;;;4.00;84.40;;;;;;5095085;28;19908;-36
2023/03/15 01:41:42;;;;;;;;;;;4.00;84.60;;;;;;5095071;28;20279;-35
2023/03/15 01:44:14;;;;;;;;;;;4.00;84.70;;;;;;5094713;28;19909;-35
2023/03/15 01:46:40;;;;;;;;;;;4.10;84.70;;;;;;5094736;28;19912;-37
2023/03/15 01:49:05;;;;;;;;;;;4.10;84.70;;;;;;5094724;28;19999;-37
2023/03/15 01:51:34;;;;;;;;;;;4.10;84.70;;;;;;5094562;28;19908;-36
2023/03/15 01:54:01;;;;;;;;;;;4.10;84.70;;;;;;5094615;28;19908;-37
2023/03/15 01:56:27;;;;;;;;;;;4.20;84.80;;;;;;5094413;28;20409;-37
2023/03/15 01:58:55;;;;;;;;;;;4.20;84.80;;;;;;5094463;28;19909;-37
2023/03/15 02:01:23;;;;;;;;;;;4.10;84.80;;;;;;5094372;28;19908;-37
2023/03/15 02:03:54;;;;;;;;;;;4.10;84.80;;;;;;5094417;28;20260;-36
2023/03/15 02:06:19;;;;;;;;;;;4.10;85.30;;;;;;5094290;28;19909;-36
2023/03/15 02:08:49;;;;;;;;;;;4.10;85.00;;;;;;5093654;28;19987;-36
2023/03/15 02:11:16;;;;;;;;;;;4.10;84.90;;;;;;5093702;28;19908;-35
2023/03/15 02:13:42;;;;;;;;;;;4.10;85.00;;;;;;5093615;28;19908;-36
2023/03/15 02:16:08;;;;;;;;;;;4.10;85.20;;;;;;5093490;28;20014;-35
2023/03/15 02:18:34;;;;;;;;;;;4.10;85.20;;;;;;5092954;28;19955;-35
2023/03/15 02:21:23;;;;;;;;;;;4.10;85.30;;;;;;5093776;28;19912;-37
2023/03/15 02:23:53;;;;;;;;;;;4.10;85.30;;;;;;5093367;28;19943;-36
2023/03/15 02:26:21;;;;;;;;;;;4.10;85.40;;;;;;5093596;28;19919;-36
2023/03/15 02:28:47;;;;;;;;;;;4.00;85.50;;;;;;5093477;28;20271;-34
2023/03/15 02:31:13;;;;;;;;;;;4.00;85.60;;;;;;5093263;28;19958;-36
2023/03/15 02:33:43;;;;;;;;;;;4.00;85.50;;;;;;5093808;28;20336;-36
2023/03/15 02:36:19;;;;;;;;;;;4.00;85.50;;;;;;5093757;28;19912;-36
2023/03/15 02:38:45;;;;;;;;;;;4.00;85.60;;;;;;5093672;28;19922;-36
2023/03/15 02:41:13;;;;;;;;;;;4.00;85.70;;;;;;5093307;28;20394;-35
2023/03/15 02:43:39;;;;;;;;;;;3.90;85.70;;;;;;5093310;28;19908;-37
2023/03/15 02:46:05;;;;;;;;;;;3.90;85.80;;;;;;5091723;28;20343;-37
2023/03/15 02:48:31;;;;;;;;;;;3.80;85.80;;;;;;5093198;28;19927;-37
2023/03/15 02:50:57;;;;;;;;;;;3.80;86.00;;;;;;5093092;28;19908;-35
2023/03/15 02:53:22;;;;;;;;;;;3.70;86.00;;;;;;5092999;28;20279;-32
2023/03/15 02:55:48;;;;;;;;;;;3.70;86.00;;;;;;5091665;28;19919;-35
2023/03/15 02:58:13;;;;;;;;;;;3.70;86.10;;;;;;5093356;28;19908;-34
2023/03/15 03:00:39;;;;;;;;;;;3.70;86.20;;;;;;5092928;28;20006;-35
2023/03/15 03:03:05;;;;;;;;;;;3.60;86.10;;;;;;5093208;28;19915;-32
2023/03/15 03:05:30;;;;;;;;;;;3.60;86.20;;;;;;5093118;28;19908;-35
2023/03/15 03:07:56;;;;;;;;;;;3.60;86.20;;;;;;5092967;28;20340;-34
2023/03/15 03:10:21;;;;;;;;;;;3.60;86.20;;;;;;5092802;28;20300;-35
2023/03/15 03:12:52;;;;;;;;;;;3.60;86.20;;;;;;5092805;28;19923;-34
2023/03/15 03:15:18;;;;;;;;;;;3.60;86.30;;;;;;5092460;28;19947;-34
2023/03/15 03:17:43;;;;;;;;;;;3.60;86.30;;;;;;5092626;28;20380;-34
2023/03/15 03:20:13;;;;;;;;;;;3.50;86.30;;;;;;5092447;28;19950;-34
2023/03/15 03:22:39;;;;;;;;;;;3.50;86.30;;;;;;5092587;28;19977;-35
2023/03/15 03:25:05;;;;;;;;;;;3.50;86.30;;;;;;5092526;28;20367;-35
2023/03/15 03:27:35;;;;;;;;;;;3.50;86.40;;;;;;5092721;28;19912;-35
2023/03/15 03:30:01;;;;;;;;;;;3.50;86.40;;;;;;5092428;28;20280;-35
2023/03/15 03:32:27;;;;;;;;;;;3.50;86.50;;;;;;5092537;28;19915;-33
2023/03/15 03:34:52;;;;;;;;;;;3.50;86.40;;;;;;5092437;28;19908;-35
2023/03/15 03:37:18;;;;;;;;;;;3.50;86.40;;;;;;5092329;28;19908;-35
2023/03/15 03:39:44;;;;;;;;;;;3.50;86.50;;;;;;5092346;28;20264;-35
2023/03/15 03:42:09;;;;;;;;;;;3.50;86.50;;;;;;5092000;28;20294;-35
2023/03/15 03:44:35;;;;;;;;;;;3.50;86.50;;;;;;5091990;28;19937;-32
2023/03/15 03:47:00;;;;;;;;;;;3.50;86.50;;;;;;5091821;28;19912;-35
2023/03/15 03:49:26;;;;;;;;;;;3.50;86.50;;;;;;5091739;28;20427;-33
2023/03/15 03:51:51;;;;;;;;;;;3.50;86.50;;;;;;5092122;28;19908;-35
2023/03/15 03:54:20;;;;;;;;;;;3.50;86.50;;;;;;5091867;28;20321;-34
2023/03/15 03:56:46;;;;;;;;;;;3.50;86.50;;;;;;5091837;28;20287;-34
2023/03/15 03:59:11;;;;;;;;;;;3.50;86.50;;;;;;5091974;28;19908;-35
2023/03/15 04:01:37;;;;;;;;;;;3.50;86.50;;;;;;5091905;28;19908;-35
2023/03/15 04:04:02;;;;;;;;;;;3.50;86.60;;;;;;5090586;28;20398;-33
2023/03/15 04:06:28;;;;;;;;;;;3.40;86.60;;;;;;5091868;28;20386;-34
2023/03/15 04:08:53;;;;;;;;;;;3.40;86.60;;;;;;5091977;28;19919;-33
2023/03/15 04:11:19;;;;;;;;;;;3.40;86.60;;;;;;5091944;28;19908;-35
2023/03/15 04:13:44;;;;;;;;;;;3.40;86.60;;;;;;5091747;28;20003;-35
2023/03/15 04:16:10;;;;;;;;;;;3.40;86.70;;;;;;5091274;28;20335;-35
2023/03/15 04:18:35;;;;;;;;;;;3.40;86.70;;;;;;5091534;28;19977;-35
2023/03/15 04:21:01;;;;;;;;;;;3.40;86.70;;;;;;5091966;28;19912;-36
2023/03/15 04:23:26;;;;;;;;;;;3.40;86.70;;;;;;5091818;28;20091;-35
2023/03/15 04:25:54;;;;;;;;;;;3.40;86.70;;;;;;5091841;28;19919;-35
2023/03/15 04:28:19;;;;;;;;;;;3.40;86.70;;;;;;5091846;28;19961;-36
2023/03/15 04:30:46;;;;;;;;;;;3.40;86.70;;;;;;5091526;28;20357;-35
2023/03/15 04:33:12;;;;;;;;;;;3.40;86.60;;;;;;5091692;28;19931;-37
2023/03/15 04:35:37;;;;;;;;;;;3.40;86.60;;;;;;5091491;28;19912;-35
2023/03/15 04:38:03;;;;;;;;;;;3.40;86.60;;;;;;5091667;28;19982;-36
2023/03/15 04:40:33;;;;;;;;;;;3.40;87.20;;;;;;5091551;28;19915;-36
2023/03/15 04:43:00;;;;;;;;;;;3.40;86.60;;;;;;5097167;28;19915;-35
2023/03/15 04:45:26;;;;;;;;;;;3.40;86.50;;;;;;5098208;28;19987;-35
2023/03/15 04:47:52;;;;;;;;;;;3.50;86.50;;;;;;5098537;28;20345;-36
2023/03/15 04:50:18;;;;;;;;;;;3.50;86.50;;;;;;5098313;28;19908;-35
2023/03/15 04:52:44;;;;;;;;;;;3.50;86.50;;;;;;5098152;28;19908;-34
2023/03/15 04:55:09;;;;;;;;;;;3.40;86.50;;;;;;5096685;28;20010;-35
2023/03/15 04:57:35;;;;;;;;;;;3.40;86.50;;;;;;5098045;28;19934;-34
2023/03/15 05:00:00;;;;;;;;;;;3.40;86.60;;;;;;5097977;28;19912;-35
2023/03/15 05:02:26;;;;;;;;;;;3.40;86.60;;;;;;5097937;28;19991;-34
2023/03/15 05:04:51;;;;;;;;;;;3.40;86.60;;;;;;5097940;28;19908;-35
2023/03/15 05:07:17;;;;;;;;;;;3.40;86.60;;;;;;5098115;28;19908;-35
2023/03/15 05:09:45;;;;;;;;;;;3.40;86.60;;;;;;5097982;28;20390;-35
2023/03/15 05:12:10;;;;;;;;;;;3.40;86.60;;;;;;5098010;28;19912;-37
2023/03/15 05:14:36;;;;;;;;;;;3.40;86.60;;;;;;5097950;28;19919;-34
2023/03/15 05:17:02;;;;;;;;;;;3.40;86.60;;;;;;5097830;28;19916;-36
2023/03/15 05:19:28;;;;;;;;;;;3.40;86.70;;;;;;5097972;28;20010;-35
2023/03/15 05:21:54;;;;;;;;;;;3.30;86.60;;;;;;5097974;28;19908;-36
2023/03/15 05:24:20;;;;;;;;;;;3.30;86.60;;;;;;5098016;28;20347;-36
2023/03/15 05:26:45;;;;;;;;;;;3.30;86.70;;;;;;5097940;28;19908;-34
2023/03/15 05:29:11;;;;;;;;;;;3.30;86.80;;;;;;5098019;28;19908;-35
2023/03/15 05:31:37;;;;;;;;;;;3.30;86.80;;;;;;5097901;28;19919;-34
2023/03/15 05:34:03;;;;;;;;;;;3.20;86.80;;;;;;5097840;28;19908;-35
2023/03/15 05:36:32;;;;;;;;;;;3.20;86.80;;;;;;5097859;28;20005;-35
2023/03/15 05:39:03;;;;;;;;;;;3.20;86.80;;;;;;5097020;28;21138;-35
2023/03/15 05:41:29;;;;;;;;;;;3.20;86.80;;;;;;5097767;28;20271;-35
2023/03/15 05:43:54;;;;;;;;;;;3.20;86.90;;;;;;5097899;28;19915;-35
2023/03/15 05:46:21;;;;;;;;;;;3.20;86.90;;;;;;5097853;28;19914;-35
2023/03/15 05:48:47;;;;;;;;;;;3.10;86.80;;;;;;5097783;28;19919;-35
2023/03/15 05:51:13;;;;;;;;;;;3.10;87.00;;;;;;5097697;28;19908;-36
2023/03/15 05:53:38;;;;;;;;;;;3.10;87.00;;;;;;5094781;28;19946;-34
2023/03/15 05:56:04;;;;;;;;;;;3.10;87.00;;;;;;5094496;28;20256;-35
2023/03/15 05:58:30;;;;;;;;;;;3.10;87.00;;;;;;5094448;28;20315;-36
2023/03/15 06:00:55;;;;;;;;;;;3.10;87.00;;;;;;5094334;28;20003;-36
2023/03/15 06:03:20;;;;;;;;;;;3.10;87.00;;;;;;5094423;28;20228;-36
2023/03/15 06:05:46;;;;;;;;;;;3.10;87.00;;;;;;5094345;28;19954;-35
2023/03/15 06:08:12;;;;;;;;;;;3.10;87.10;;;;;;5093003;28;19908;-36
2023/03/15 06:10:37;;;;;;;;;;;3.10;87.00;;;;;;5094218;28;19909;-35
2023/03/15 06:13:03;;;;;;;;;;;3.10;87.00;;;;;;5094520;28;20291;-36
2023/03/15 06:15:28;;;;;;;;;;;3.20;87.00;;;;;;5094035;28;20370;-35
2023/03/15 06:17:54;;;;;;;;;;;3.20;87.00;;;;;;5094130;28;20006;-35
2023/03/15 06:20:19;;;;;;;;;;;3.20;87.00;;;;;;5094097;28;19912;-40
2023/03/15 06:22:45;;;;;;;;;;;3.20;87.00;;;;;;5094110;28;19905;-35
2023/03/15 06:25:10;;;;;;;;;;;3.20;86.90;;;;;;5093987;28;20383;-35
2023/03/15 06:27:36;;;;;;;;;;;3.20;86.80;;;;;;5093872;28;19912;-34
2023/03/15 06:30:02;;;;;;;;;;;3.20;86.70;;;;;;5093869;28;20014;-36
2023/03/15 06:32:28;;;;;;;;;;;3.20;86.80;;;;;;5093800;28;19917;-35
2023/03/15 06:34:53;;;;;;;;;;;3.20;86.90;;;;;;5094089;28;19920;-34
2023/03/15 06:37:20;;;;;;;;;;;3.20;86.80;;;;;;5093720;28;19916;-36
2023/03/15 06:39:46;;;;;;;;;;;3.20;86.70;;;;;;5093911;28;19912;-35
2023/03/15 06:42:12;;;;;;;;;;;3.20;86.70;;;;;;5093761;28;19961;-37
2023/03/15 06:44:38;;;;;;;;;;;3.20;86.70;;;;;;5093743;28;19912;-34
2023/03/15 06:47:04;;;;;;;;;;;3.20;86.70;;;;;;5093694;28;19912;-35
2023/03/15 06:49:29;;;;;;;;;;;3.10;86.60;;;;;;5093645;28;19912;-35
2023/03/15 06:51:55;;;;;;;;;;;3.00;86.70;;;;;;5093530;28;19919;-35
2023/03/15 06:54:21;;;;;;;;;;;3.00;86.80;;;;;;5093440;28;20415;-35
2023/03/15 06:56:46;;;;;;;;;;;3.00;86.90;;;;;;5093389;28;20010;-34
2023/03/15 06:59:12;;;;;;;;;;;3.00;87.00;;;;;;5093421;28;20424;-35
2023/03/15 07:01:37;;;;;;;;;;;3.10;87.00;;;;;;5093394;28;19920;-35
2023/03/15 07:04:03;;;;;;;;;;;3.00;86.90;;;;;;5091912;28;20010;-35
2023/03/15 07:06:29;;;;;;;;;;;3.00;86.90;;;;;;5092928;28;19912;-36
2023/03/15 07:08:54;;;;;;;;;;;3.00;87.00;;;;;;5093185;28;20334;-35
2023/03/15 07:11:20;;;;;;;;;;;3.00;87.00;;;;;;5093508;28;19939;-35
2023/03/15 07:13:45;;;;;;;;;;;3.10;87.10;;;;;;5093093;28;20308;-34
2023/03/15 07:16:11;;;;;;;;;;;3.10;87.00;;;;;;5092752;28;19999;-35
2023/03/15 07:18:36;;;;;;;;;;;3.10;87.10;;;;;;5091664;28;19912;-35
2023/03/15 07:21:02;;;;;;;;;;;3.10;87.00;;;;;;5093083;28;19912;-37
2023/03/15 07:23:28;;;;;;;;;;;3.20;87.00;;;;;;5091472;28;19912;-37
2023/03/15 07:25:54;;;;;;;;;;;3.30;87.00;;;;;;5092893;28;19918;-35
2023/03/15 07:28:20;;;;;;;;;;;3.40;86.90;;;;;;5092821;28;19916;-35
2023/03/15 07:30:52;;;;;;;;;;;3.50;86.90;;;;;;5092730;28;19927;-35
2023/03/15 07:33:21;;;;;;;;;;;3.60;86.80;;;;;;5091550;28;19911;-36
2023/03/15 07:35:47;;;;;;;;;;;3.60;86.70;;;;;;5092699;28;20295;-35
2023/03/15 07:38:12;;;;;;;;;;;3.70;86.60;;;;;;5092508;28;20023;-35
2023/03/15 07:40:38;;;;;;;;;;;3.70;86.50;;;;;;5092377;28;20407;-35
2023/03/15 07:43:05;;;;;;;;;;;3.80;86.40;;;;;;5092540;28;20006;-36
2023/03/15 07:45:31;;;;;;;;;;;3.90;86.40;;;;;;5091008;28;20386;-35
2023/03/15 07:47:56;;;;;;;;;;;3.90;86.30;;;;;;5092354;28;19919;-35
2023/03/15 07:50:22;;;;;;;;;;;3.90;86.30;;;;;;5092362;28;19912;-35
2023/03/15 07:52:47;;;;;;;;;;;4.00;86.30;;;;;;5092230;28;19948;-35
2023/03/15 07:55:13;;;;;;;;;;;4.00;86.20;;;;;;5092192;28;20018;-35
2023/03/15 07:57:38;;;;;;;;;;;4.10;86.20;;;;;;5092264;28;19928;-36
2023/03/15 08:00:05;;;;;;;;;;;4.10;86.10;;;;;;5092426;28;19912;-36
2023/03/15 08:02:30;;;;;;;;;;;4.10;86.10;;;;;;5092191;28;20002;-35
2023/03/15 08:04:56;;;;;;;;;;;4.20;86.10;;;;;;5092237;28;19989;-34
2023/03/15 08:07:21;;;;;;;;;;;4.20;86.00;;;;;;5092115;28;20021;-36
2023/03/15 08:09:47;;;;;;;;;;;4.30;85.90;;;;;;5092160;28;19935;-36
2023/03/15 08:12:13;;;;;;;;;;;4.40;85.90;;;;;;5092066;28;19915;-36
2023/03/15 08:14:38;;;;;;;;;;;4.40;85.80;;;;;;5091188;28;19916;-35
2023/03/15 08:17:04;;;;;;;;;;;4.50;85.80;;;;;;5090036;28;20396;-35
2023/03/15 08:19:29;;;;;;;;;;;4.50;85.70;;;;;;5091768;28;19955;-35
2023/03/15 08:21:54;;;;;;;;;;;4.60;85.70;;;;;;5092010;28;20379;-35
2023/03/15 08:24:20;;;;;;;;;;;4.60;85.60;;;;;;5091855;28;19912;-37
2023/03/15 08:26:46;;;;;;;;;;;4.70;85.50;;;;;;5091956;28;20398;-35
2023/03/15 08:29:12;;;;;;;;;;;4.70;85.40;;;;;;5091742;28;19935;-36
2023/03/15 08:31:37;;;;;;;;;;;4.80;85.40;;;;;;5090536;28;19936;-35
2023/03/15 08:34:03;;;;;;;;;;;4.80;85.30;;;;;;5091882;28;20398;-36
2023/03/15 08:36:28;;;;;;;;;;;4.90;85.30;;;;;;5091651;28;20327;-36
2023/03/15 08:38:54;;;;;;;;;;;4.90;85.20;;;;;;5091960;28;19912;-35
2023/03/15 08:41:19;;;;;;;;;;;4.90;85.10;;;;;;5091684;28;20236;-35
2023/03/15 08:43:45;;;;;;;;;;;5.00;85.10;;;;;;5091565;28;19978;-36
2023/03/15 08:46:11;;;;;;;;;;;5.00;85.00;;;;;;5091442;28;19912;-34
2023/03/15 08:48:37;;;;;;;;;;;5.00;84.80;;;;;;5091477;28;20266;-35
2023/03/15 08:51:07;;;;;;;;;;;5.10;84.60;;;;;;5091525;28;20012;-36
2023/03/15 08:53:33;;;;;;;;;;;5.10;84.60;;;;;;5091685;28;19918;-36
2023/03/15 08:55:59;;;;;;;;;;;5.20;84.40;;;;;;5091304;28;19916;-35
2023/03/15 08:58:24;;;;;;;;;;;5.20;84.40;;;;;;5091498;28;20371;-35
2023/03/15 09:00:50;;;;;;;;;;;5.30;84.30;;;;;;5090098;28;19923;-35
2023/03/15 09:03:16;;;;;;;;;;;5.30;84.20;;;;;;5091273;28;19913;-35
2023/03/15 09:05:42;;;;;;;;;;;5.40;84.20;;;;;;5091425;28;20275;-36
2023/03/15 09:08:07;;;;;;;;;;;5.40;84.00;;;;;;5091363;28;20368;-34
2023/03/15 09:10:33;;;;;;;;;;;5.40;83.70;;;;;;5091228;28;19938;-35
2023/03/15 09:12:58;;;;;;;;;;;5.40;83.80;;;;;;5091497;28;20011;-33
2023/03/15 09:15:24;;;;;;;;;;;5.50;83.70;;;;;;5091305;28;20050;-34
2023/03/15 09:17:50;;;;;;;;;;;5.50;83.70;;;;;;5091536;28;19962;-35
2023/03/15 09:20:17;;;;;;;;;;;5.60;83.60;;;;;;5091289;28;20287;-35
2023/03/15 09:22:48;;;;;;;;;;;5.60;83.50;;;;;;5091252;28;19912;-35
2023/03/15 09:25:13;;;;;;;;;;;5.70;83.40;;;;;;5089786;28;20272;-38
2023/03/15 09:27:39;;;;;;;;;;;5.70;82.70;;;;;;5091830;28;19919;-35
2023/03/15 09:30:05;;;;;;;;;;;5.80;82.70;;;;;;5093581;28;19920;-36
2023/03/15 09:32:34;;;;;;;;;;;5.80;82.50;;;;;;5095067;28;19912;-34
2023/03/15 09:35:03;;;;;;;;;;;5.80;82.30;;;;;;5094869;28;19958;-36
2023/03/15 09:37:29;;;;;;;;;;;5.90;81.40;;;;;;5094877;28;20268;-36
2023/03/15 09:39:55;;;;;;;;;;;5.90;81.70;;;;;;5095012;28;19919;-36
2023/03/15 09:42:40;;;;;;;;;;;5.90;81.60;;;;;;5094811;28;20363;-35
2023/03/15 09:45:06;;;;;;;;;;;6.00;81.60;;;;;;5094323;28;19912;-35
2023/03/15 09:47:39;;;;;;;;;;;6.10;81.20;;;;;;5094952;28;19927;-36
2023/03/15 09:50:06;;;;;;;;;;;6.10;81.00;;;;;;5095012;28;19973;-36
2023/03/15 09:52:35;;;;;;;;;;;6.10;80.80;;;;;;5094721;28;19912;-36
2023/03/15 09:55:18;;;;;;;;;;;6.20;80.80;;;;;;5094673;28;20363;-35
2023/03/15 09:57:52;;;;;;;;;;;6.20;80.60;;;;;;5094541;28;19908;-36
2023/03/15 10:00:22;;;;;;;;;;;6.30;80.20;;;;;;5094405;28;19916;-36
2023/03/15 10:02:55;;;;;;;;;;;6.40;79.50;;;;;;5094263;28;19908;-35
2023/03/15 10:05:22;;;;;;;;;;;6.40;79.20;;;;;;5094474;28;19912;-36
2023/03/15 10:07:48;;;;;;;;;;;6.50;79.20;;;;;;5094482;28;19912;-35
2023/03/15 10:10:33;;;;;;;;;;;6.60;79.10;;;;;;5094315;28;20006;-36
2023/03/15 10:13:18;;;;;;;;;;;6.60;78.70;;;;;;5094667;28;20320;-35
2023/03/15 10:15:52;;;;;;;;;;;6.70;78.40;;;;;;5093799;28;20050;-36
2023/03/15 10:18:26;;;;;;;;;;;6.80;78.30;;;;;;5094215;28;19908;-35
2023/03/15 10:20:57;;;;;;;;;;;6.90;77.90;;;;;;5094321;28;19923;-36
2023/03/15 10:23:31;;;;;;;;;;;7.10;77.50;;;;;;5094039;28;19995;-36
2023/03/15 10:25:57;;;;;;;;;;;7.10;76.60;;;;;;5092804;28;19908;-34
2023/03/15 10:28:24;;;;;;;;;;;7.10;76.30;;;;;;5094197;28;19914;-36
2023/03/15 10:30:50;;;;;;;;;;;7.10;75.20;;;;;;5092492;28;20179;-36
2023/03/15 10:33:30;;;;;;;;;;;7.20;75.90;;;;;;5093958;28;19915;-36
2023/03/15 10:35:56;;;;;;;;;;;7.20;74.50;;;;;;5093936;28;19916;-35
2023/03/15 10:38:23;;;;;;;;;;;7.30;75.70;;;;;;5093897;28;19958;-36
2023/03/15 10:40:49;;;;;;;;;;;7.40;76.10;;;;;;5093124;28;19908;-36
2023/03/15 10:43:21;;;;;;;;;;;7.50;76.30;;;;;;5093599;28;20007;-36
2023/03/15 10:45:58;;;;;;;;;;;7.60;76.90;;;;;;5093906;28;19908;-35
2023/03/15 10:48:24;;;;;;;;;;;7.70;75.10;;;;;;5093540;28;19991;-36
2023/03/15 10:50:50;;;;;;;;;;;7.70;75.40;;;;;;5093337;28;19944;-36
2023/03/15 10:53:19;;;;;;;;;;;7.70;74.30;;;;;;5093450;28;19960;-36
2023/03/15 10:55:45;;;;;;;;;;;7.70;73.70;;;;;;5093648;28;20018;-36
2023/03/15 10:58:13;;;;;;;;;;;7.80;74.40;;;;;;5093626;28;20397;-35
2023/03/15 11:00:47;;;;;;;;;;;7.80;74.50;;;;;;5093496;28;20208;-35
2023/03/15 11:03:20;;;;;;;;;;;7.90;73.00;;;;;;5093540;28;19914;-36
2023/03/15 11:05:49;;;;;;;;;;;7.90;72.90;;;;;;5093585;28;19922;-37
2023/03/15 11:08:16;;;;;;;;;;;8.00;72.90;;;;;;5093360;28;20431;-37
2023/03/15 11:10:43;;;;;;;;;;;8.00;72.50;;;;;;5093151;28;19908;-35
2023/03/15 11:13:19;;;;;;;;;;;8.10;71.60;;;;;;5092943;28;19999;-36
2023/03/15 11:16:03;;;;;;;;;;;8.10;71.80;;;;;;5092922;28;19912;-36
2023/03/15 11:18:31;;;;;;;;;;;8.10;71.60;;;;;;5092956;28;19977;-36
2023/03/15 11:20:57;;;;;;;;;;;8.10;71.40;;;;;;5092887;28;19908;-36
2023/03/15 11:23:25;;;;;;;;;;;8.10;71.40;;;;;;5092917;28;19954;-36
2023/03/15 11:25:51;;;;;;;;;;;8.10;71.00;;;;;;5092906;28;19976;-36
2023/03/15 11:28:19;;;;;;;;;;;8.10;70.90;;;;;;5092793;28;20233;-35
2023/03/15 11:30:46;;;;;;;;;;;8.10;70.10;;;;;;5092986;28;19927;-36
2023/03/15 11:33:28;;;;;;;;;;;8.10;70.20;;;;;;5092653;28;20120;-36
2023/03/15 11:35:55;;;;;;;;;;;8.20;68.90;;;;;;5091730;28;19912;-36
2023/03/15 11:38:32;;;;;;;;;;;8.10;67.10;;;;;;5092721;28;19908;-35
2023/03/15 11:40:58;;;;;;;;;;;8.20;67.00;;;;;;5092847;28;19908;-36
2023/03/15 11:43:26;;;;;;;;;;;8.20;68.00;;;;;;5092629;28;20371;-36
2023/03/15 11:46:07;;;;;;;;;;;8.30;65.70;;;;;;5092526;28;19908;-35
2023/03/15 11:48:39;;;;;;;;;;;8.30;66.70;;;;;;5092692;28;20348;-36
2023/03/15 11:51:05;;;;;;;;;;;8.40;66.60;;;;;;5090541;28;20011;-36
2023/03/15 11:53:34;;;;;;;;;;;8.30;66.10;;;;;;5092181;28;20240;-35
2023/03/15 11:56:18;;;;;;;;;;;8.40;66.90;;;;;;5092216;28;19916;-34
2023/03/15 11:58:43;;;;;;;;;;;8.40;66.60;;;;;;5092524;28;19915;-36
2023/03/15 12:01:10;;;;;;;;;;;8.40;64.10;;;;;;5092689;28;19908;-38
2023/03/15 12:03:40;;;;;;;;;;;8.40;64.10;;;;;;5092487;28;19919;-37
2023/03/15 12:06:05;;;;;;;;;;;8.50;63.60;;;;;;5092279;28;19958;-36
2023/03/15 12:08:34;;;;;;;;;;;8.50;65.00;;;;;;5092423;28;20324;-34
2023/03/15 12:11:00;;;;;;;;;;;8.50;64.60;;;;;;5092351;28;20293;-35
2023/03/15 12:13:26;;;;;;;;;;;8.50;63.20;;;;;;5091967;28;19998;-35
2023/03/15 12:15:53;;;;;;;;;;;8.50;62.30;;;;;;5092332;28;19950;-36
2023/03/15 12:18:20;;;;;;;;;;;8.50;63.30;;;;;;5091959;28;19908;-35
2023/03/15 12:20:57;;;;;;;;;;;8.50;61.50;;;;;;5091679;28;19908;-36
2023/03/15 12:23:31;;;;;;;;;;;8.50;60.90;;;;;;5091559;28;19987;-36
2023/03/15 12:26:00;;;;;;;;;;;8.60;58.90;;;;;;5092031;28;19916;-35
2023/03/15 12:28:29;;;;;;;;;;;8.50;59.10;;;;;;5091698;28;19958;-35
2023/03/15 12:31:01;;;;;;;;;;;8.50;59.10;;;;;;5091559;28;19920;-38
2023/03/15 12:33:29;;;;;;;;;;;8.50;59.40;;;;;;5091793;28;19994;-37
2023/03/15 12:35:59;;;;;;;;;;;8.50;60.70;;;;;;5090356;28;19967;-39
2023/03/15 12:38:30;;;;;;;;;;;8.60;59.90;;;;;;5091422;28;19908;-36
2023/03/15 12:40:56;;;;;;;;;;;8.60;59.50;;;;;;5091913;28;19919;-37
2023/03/15 12:43:51;;;;;;;;;;;8.70;59.70;;;;;;5091505;28;20359;-35
2023/03/15 12:46:35;;;;;;;;;;;8.70;60.20;;;;;;5082116;28;19908;-40
2023/03/15 12:49:05;;;;;;;;;;;8.80;58.50;;;;;;5091573;28;19908;-37
2023/03/15 12:51:56;;;;;;;;;;;8.80;58.60;;;;;;5091089;28;19908;-38
2023/03/15 12:54:23;;;;;;;;;;;8.80;58.60;;;;;;5088927;28;19964;-35
2023/03/15 12:56:53;;;;;;;;;;;8.90;57.20;;;;;;5091467;28;19919;-40
2023/03/15 12:59:18;;;;;;;;;;;8.90;57.40;;;;;;5090968;28;19908;-34
2023/03/15 13:01:44;;;;;;;;;;;8.90;57.40;;;;;;5091239;28;19995;-37
2023/03/15 13:04:11;;;;;;;;;;;8.90;57.00;;;;;;5094189;28;20414;-35
2023/03/15 13:06:44;;;;;;;;;;;9.00;58.10;;;;;;5095204;28;19915;-37
2023/03/15 13:09:29;;;;;;;;;;;9.00;58.20;;;;;;5095344;28;19912;-39
2023/03/15 13:12:09;;;;;;;;;;;9.10;58.40;;;;;;5093931;28;19943;-36
2023/03/15 13:14:52;;;;;;;;;;;9.20;58.70;;;;;;5093946;28;19916;-38
2023/03/15 13:17:23;;;;;;;;;;;9.30;58.20;;;;;;5095302;28;19913;-34
2023/03/15 13:19:54;;;;;;;;;;;9.30;57.70;;;;;;5095259;28;19912;-36
2023/03/15 13:22:22;;;;;;;;;;;9.30;57.20;;;;;;5095375;28;19951;-37
2023/03/15 13:25:08;;;;;;;;;;;9.40;57.90;;;;;;5095535;28;19962;-36
2023/03/15 13:27:36;;;;;;;;;;;9.40;56.30;;;;;;5095309;28;19915;-37
2023/03/15 13:30:24;;;;;;;;;;;9.40;56.30;;;;;;5094946;28;19920;-35
2023/03/15 13:33:10;;;;;;;;;;;9.40;55.90;;;;;;5095145;28;19912;-35
2023/03/15 13:35:43;;;;;;;;;;;9.50;56.90;;;;;;5087702;28;19923;-39
2023/03/15 13:38:21;;;;;;;;;;;9.50;55.50;;;;;;5095082;28;19909;-37
2023/03/15 13:40:47;;;;;;;;;;;9.60;56.20;;;;;;5095017;28;19908;-37
2023/03/15 13:43:12;;;;;;;;;;;9.60;55.90;;;;;;5094944;28;19908;-36
2023/03/15 13:45:40;;;;;;;;;;;9.60;55.50;;;;;;5095284;28;19915;-35
2023/03/15 13:48:06;;;;;;;;;;;9.70;55.50;;;;;;5094792;28;19908;-38
2023/03/15 13:50:32;;;;;;;;;;;9.70;56.30;;;;;;5094746;28;19931;-36
2023/03/15 13:52:57;;;;;;;;;;;9.80;56.60;;;;;;5094778;28;19908;-36
2023/03/15 13:55:24;;;;;;;;;;;9.90;55.10;;;;;;5094459;28;20006;-38
2023/03/15 13:57:53;;;;;;;;;;;10.00;56.00;;;;;;5095001;28;20229;-36
2023/03/15 14:00:18;;;;;;;;;;;10.00;55.60;;;;;;5094726;28;19908;-35
2023/03/15 14:02:50;;;;;;;;;;;10.10;54.00;;;;;;5094561;28;19908;-36
2023/03/15 14:05:38;;;;;;;;;;;10.10;54.10;;;;;;5094493;28;19908;-36
2023/03/15 14:08:16;;;;;;;;;;;10.10;55.20;;;;;;5094094;28;19909;-35
2023/03/15 14:10:42;;;;;;;;;;;10.20;55.50;;;;;;5094063;28;19928;-36
2023/03/15 14:13:28;;;;;;;;;;;10.30;55.20;;;;;;5094308;28;19908;-36
2023/03/15 14:16:16;;;;;;;;;;;10.30;55.50;;;;;;5093501;28;19920;-35
2023/03/15 14:18:42;;;;;;;;;;;10.40;55.00;;;;;;5088431;28;19915;-36
2023/03/15 14:21:19;;;;;;;;;;;10.40;54.70;;;;;;5094588;28;19908;-37
2023/03/15 14:23:45;;;;;;;;;;;10.30;54.50;;;;;;5094416;28;19947;-36
2023/03/15 14:26:17;;;;;;;;;;;10.30;54.80;;;;;;5094061;28;19909;-36
2023/03/15 14:28:47;;;;;;;;;;;10.40;54.80;;;;;;5094229;28;20279;-36
2023/03/15 14:31:22;;;;;;;;;;;10.40;55.00;;;;;;5093821;28;19938;-34
2023/03/15 14:33:52;;;;;;;;;;;10.50;55.10;;;;;;5094504;28;19998;-36